createdAt,value
2022-09-07T00:02:22.513Z,27.80
2022-09-07T00:04:54.953Z,27.80
2022-09-07T00:07:22.978Z,27.80
2022-09-07T00:09:51.522Z,27.70
2022-09-07T00:12:18.927Z,27.70
2022-09-07T00:14:46.518Z,27.70
2022-09-07T00:17:13.947Z,27.80
2022-09-07T00:19:41.472Z,27.80
2022-09-07T00:22:08.995Z,27.70
2022-09-07T00:24:36.878Z,27.80
2022-09-07T00:27:04.590Z,27.80
2022-09-07T00:29:32.027Z,27.70
2022-09-07T00:31:59.409Z,27.70
2022-09-07T00:34:26.822Z,27.70
2022-09-07T00:36:54.267Z,27.60
2022-09-07T00:39:21.701Z,27.50
2022-09-07T00:41:49.164Z,27.40
2022-09-07T00:44:44.439Z,27.50
2022-09-07T00:47:26.537Z,27.60
2022-09-07T00:50:00.107Z,27.70
2022-09-07T00:52:29.165Z,27.60
2022-09-07T00:55:01.014Z,27.60
2022-09-07T00:57:29.338Z,27.60
2022-09-07T00:59:57.796Z,27.50
2022-09-07T01:02:26.466Z,27.60
2022-09-07T01:05:17.273Z,27.50
2022-09-07T01:07:45.870Z,27.40
2022-09-07T01:10:14.378Z,27.50
2022-09-07T01:12:41.768Z,27.50
2022-09-07T01:15:09.594Z,27.40
2022-09-07T01:17:53.466Z,27.40
2022-09-07T01:20:26.774Z,27.40
2022-09-07T01:23:13.793Z,27.40
2022-09-07T01:26:30.585Z,27.40
2022-09-07T01:29:24.604Z,27.30
2022-09-07T01:32:14.621Z,27.20
2022-09-07T01:34:47.188Z,27.20
2022-09-07T01:37:56.853Z,27.10
2022-09-07T01:40:40.594Z,27.10
2022-09-07T01:43:15.661Z,27.10
2022-09-07T01:45:45.336Z,27.10
2022-09-07T01:48:19.809Z,27.10
2022-09-07T01:51:01.692Z,27.00
2022-09-07T01:53:43.861Z,27.00
2022-09-07T01:56:25.464Z,27.00
2022-09-07T01:59:25.261Z,27.00
2022-09-07T02:02:21.363Z,27.00
2022-09-07T02:05:12.273Z,26.90
2022-09-07T02:08:03.468Z,26.90
2022-09-07T02:11:06.096Z,26.90
2022-09-07T02:14:29.001Z,26.90
2022-09-07T02:17:12.203Z,26.90
2022-09-07T02:20:11.748Z,26.90
2022-09-07T02:22:51.995Z,26.90
2022-09-07T02:25:32.298Z,26.90
2022-09-07T02:28:41.924Z,26.90
2022-09-07T02:31:20.338Z,27.00
2022-09-07T02:34:05.230Z,26.90
2022-09-07T02:36:48.694Z,26.90
2022-09-07T02:39:21.022Z,26.80
2022-09-07T02:41:57.977Z,26.80
2022-09-07T02:44:36.468Z,26.80
2022-09-07T02:47:32.457Z,26.90
2022-09-07T02:50:19.371Z,26.80
2022-09-07T02:53:21.931Z,26.70
2022-09-07T02:55:54.757Z,26.50
2022-09-07T02:58:52.161Z,26.40
2022-09-07T03:01:52.595Z,26.40
2022-09-07T03:04:38.853Z,26.40
2022-09-07T03:07:21.820Z,26.50
2022-09-07T03:09:53.355Z,26.40
2022-09-07T03:12:21.380Z,26.50
2022-09-07T03:14:58.500Z,26.50
2022-09-07T03:22:14.905Z,26.40
2022-09-07T03:24:43.474Z,26.30
2022-09-07T03:27:11.538Z,26.20
2022-09-07T03:29:41.847Z,26.20
2022-09-07T03:32:12.797Z,26.20
2022-09-07T03:34:51.754Z,26.20
2022-09-07T03:37:21.351Z,26.30
2022-09-07T03:39:55.410Z,26.40
2022-09-07T03:42:33.551Z,26.30
2022-09-07T03:45:10.605Z,26.20
2022-09-07T03:47:45.793Z,26.20
2022-09-07T03:50:20.470Z,26.30
2022-09-07T03:52:54.727Z,26.30
2022-09-07T03:55:29.442Z,26.20
2022-09-07T03:58:00.686Z,26.20
2022-09-07T04:00:29.098Z,26.20
2022-09-07T04:02:56.487Z,26.20
2022-09-07T04:05:23.947Z,26.20
2022-09-07T04:07:52.559Z,26.30
2022-09-07T04:10:19.987Z,26.40
2022-09-07T04:12:50.542Z,26.30
2022-09-07T04:15:17.931Z,26.30
2022-09-07T04:17:45.488Z,26.10
2022-09-07T04:20:12.886Z,26.10
2022-09-07T04:22:40.339Z,26.10
2022-09-07T04:25:08.045Z,26.00
2022-09-07T04:27:35.462Z,26.00
2022-09-07T04:30:06.457Z,25.90
2022-09-07T04:32:33.841Z,25.90
2022-09-07T04:35:06.466Z,25.80
2022-09-07T04:37:41.216Z,25.90
2022-09-07T04:40:15.465Z,26.00
2022-09-07T04:42:50.855Z,25.90
2022-09-07T04:45:29.406Z,25.90
2022-09-07T04:48:17.626Z,25.80
2022-09-07T04:50:53.476Z,25.80
2022-09-07T04:53:28.716Z,25.90
2022-09-07T04:55:59.520Z,26.00
2022-09-07T04:58:31.936Z,26.10
2022-09-07T05:01:08.227Z,26.00
2022-09-07T05:04:33.999Z,26.00
2022-09-07T05:07:06.693Z,26.00
2022-09-07T05:09:34.759Z,26.10
2022-09-07T05:12:05.414Z,26.10
2022-09-07T05:14:32.831Z,26.10
2022-09-07T05:17:00.340Z,26.20
2022-09-07T05:19:28.031Z,26.20
2022-09-07T05:21:57.467Z,26.20
2022-09-07T05:24:45.588Z,26.20
2022-09-07T05:27:13.711Z,26.20
2022-09-07T05:32:28.872Z,26.30
2022-09-07T05:34:56.268Z,26.30
2022-09-07T05:37:24.076Z,26.40
2022-09-07T05:40:01.632Z,26.30
2022-09-07T05:43:09.058Z,26.30
2022-09-07T05:45:37.420Z,26.30
2022-09-07T05:48:04.850Z,26.40
2022-09-07T05:50:32.243Z,26.40
2022-09-07T05:53:23.351Z,26.40
2022-09-07T05:55:50.774Z,26.30
2022-09-07T05:58:18.829Z,26.30
2022-09-07T06:00:46.319Z,26.20
2022-09-07T06:04:24.016Z,26.30
2022-09-07T06:07:28.528Z,26.40
2022-09-07T06:12:48.993Z,26.40
2022-09-07T06:15:17.165Z,26.40
2022-09-07T06:17:44.578Z,26.30
2022-09-07T06:20:11.962Z,26.40
2022-09-07T06:22:39.374Z,26.40
2022-09-07T06:25:07.097Z,26.40
2022-09-07T06:27:34.734Z,26.40
2022-09-07T06:30:02.124Z,26.50
2022-09-07T06:32:45.732Z,26.50
2022-09-07T06:35:14.878Z,26.50
2022-09-07T06:37:42.893Z,26.50
2022-09-07T06:40:11.527Z,26.50
2022-09-07T06:42:40.142Z,26.50
2022-09-07T06:45:12.721Z,26.50
2022-09-07T06:47:42.406Z,26.50
2022-09-07T06:50:10.138Z,26.60
2022-09-07T06:55:27.859Z,26.70
2022-09-07T06:57:55.300Z,26.80
2022-09-07T07:00:22.778Z,26.80
2022-09-07T07:02:51.110Z,26.80
2022-09-07T07:08:07.489Z,26.90
2022-09-07T07:10:39.139Z,26.90
2022-09-07T07:13:06.536Z,26.90
2022-09-07T07:15:33.962Z,27.00
2022-09-07T07:18:14.841Z,26.90
2022-09-07T07:20:47.533Z,26.90
2022-09-07T07:23:16.859Z,27.00
2022-09-07T07:25:45.955Z,27.00
2022-09-07T07:31:07.295Z,27.10
2022-09-07T07:33:39.024Z,27.10
2022-09-07T07:36:13.992Z,27.10
2022-09-07T07:44:24.469Z,27.00
2022-09-07T07:46:52.281Z,27.10
2022-09-07T07:49:33.408Z,27.10
2022-09-07T07:54:49.638Z,27.20
2022-09-07T07:57:18.946Z,27.10
2022-09-07T07:59:46.295Z,27.10
2022-09-07T08:02:17.652Z,27.10
2022-09-07T08:04:45.093Z,27.00
2022-09-07T08:07:12.673Z,27.00
2022-09-07T08:09:45.016Z,27.00
2022-09-07T08:12:24.610Z,27.10
2022-09-07T08:14:56.716Z,27.20
2022-09-07T08:17:31.912Z,27.30
2022-09-07T08:20:25.185Z,27.30
2022-09-07T08:26:39.186Z,27.40
2022-09-07T08:29:06.453Z,27.40
2022-09-07T08:31:34.795Z,27.50
2022-09-07T08:34:02.101Z,27.50
2022-09-07T08:36:31.741Z,27.50
2022-09-07T08:38:59.950Z,27.50
2022-09-07T08:42:03.040Z,27.50
2022-09-07T08:44:41.751Z,27.60
2022-09-07T08:47:17.690Z,27.60
2022-09-07T08:50:16.690Z,27.60
2022-09-07T08:53:10.783Z,27.70
2022-09-07T08:55:48.647Z,27.60
2022-09-07T08:58:45.356Z,27.70
2022-09-07T09:01:32.087Z,27.80
2022-09-07T09:04:16.583Z,27.80
2022-09-07T09:07:03.597Z,27.80
2022-09-07T09:10:04.986Z,27.80
2022-09-07T09:12:59.888Z,27.70
2022-09-07T09:15:49.107Z,27.70
2022-09-07T09:18:35.319Z,27.80
2022-09-07T09:21:08.306Z,27.80
2022-09-07T09:23:42.009Z,27.90
2022-09-07T09:26:18.823Z,27.90
2022-09-07T09:28:46.055Z,27.90
2022-09-07T09:31:33.346Z,28.00
2022-09-07T09:34:13.524Z,28.00
2022-09-07T09:36:43.845Z,28.00
2022-09-07T09:39:28.962Z,28.00
2022-09-07T09:42:03.122Z,28.00
2022-09-07T09:44:39.790Z,28.00
2022-09-07T09:47:34.326Z,28.00
2022-09-07T09:50:09.482Z,28.10
2022-09-07T09:52:50.886Z,28.00
2022-09-07T09:55:35.496Z,28.10
2022-09-07T10:01:35.342Z,28.10
2022-09-07T10:04:32.319Z,28.20
2022-09-07T10:07:21.314Z,28.20
2022-09-07T10:09:54.399Z,28.30
2022-09-07T10:12:35.156Z,28.20
2022-09-07T10:15:05.685Z,28.30
2022-09-07T10:17:47.607Z,28.30
2022-09-07T10:20:18.853Z,28.30
2022-09-07T10:22:58.526Z,28.30
2022-09-07T10:25:40.045Z,28.30
2022-09-07T10:28:10.952Z,28.30
2022-09-07T10:30:54.560Z,28.30
2022-09-07T10:37:05.010Z,28.40
2022-09-07T10:39:41.789Z,28.40
2022-09-07T10:42:32.758Z,28.40
2022-09-07T10:45:24.027Z,28.40
2022-09-07T10:48:00.618Z,28.40
2022-09-07T10:50:32.421Z,28.40
2022-09-07T10:53:23.530Z,28.50
2022-09-07T10:56:34.217Z,28.50
2022-09-07T10:59:23.965Z,28.50
2022-09-07T11:01:57.205Z,28.50
2022-09-07T11:04:55.206Z,28.50
2022-09-07T11:07:34.286Z,28.50
2022-09-07T11:10:32.299Z,28.40
2022-09-07T11:13:05.754Z,28.30
2022-09-07T11:15:42.880Z,28.30
2022-09-07T11:18:24.664Z,28.30
2022-09-07T11:21:03.995Z,28.40
2022-09-07T11:23:40.849Z,28.40
2022-09-07T11:26:36.903Z,28.40
2022-09-07T11:32:15.401Z,28.50
2022-09-07T11:35:06.422Z,28.50
2022-09-07T11:37:43.734Z,28.50
2022-09-07T11:40:34.018Z,28.50
2022-09-07T11:43:11.507Z,28.50
2022-09-07T11:46:14.197Z,28.60
2022-09-07T11:48:59.997Z,28.60
2022-09-07T11:51:54.058Z,28.50
2022-09-07T11:54:45.835Z,28.60
2022-09-07T11:57:16.056Z,28.50
2022-09-07T12:00:25.062Z,28.50
2022-09-07T12:03:22.866Z,28.60
2022-09-07T12:05:50.201Z,28.60
2022-09-07T12:08:36.164Z,28.60
2022-09-07T12:11:14.050Z,28.70
2022-09-07T12:13:53.478Z,28.80
2022-09-07T12:16:29.877Z,28.70
2022-09-07T12:19:15.981Z,28.70
2022-09-07T12:21:47.053Z,28.70
2022-09-07T12:24:53.214Z,28.60
2022-09-07T12:27:33.532Z,28.60
2022-09-07T12:30:04.989Z,28.60
2022-09-07T12:32:58.757Z,28.60
2022-09-07T12:35:28.423Z,28.70
2022-09-07T12:38:12.129Z,28.70
2022-09-07T12:40:39.417Z,28.70
2022-09-07T12:43:34.846Z,28.70
2022-09-07T12:46:03.794Z,28.70
2022-09-07T12:48:54.976Z,28.60
2022-09-07T12:55:23.655Z,28.70
2022-09-07T12:58:43.881Z,28.80
2022-09-07T13:02:33.527Z,28.70
2022-09-07T13:05:06.539Z,28.80
2022-09-07T13:08:12.509Z,28.80
2022-09-07T13:10:42.231Z,28.80
2022-09-07T13:13:15.797Z,28.80
2022-09-07T13:16:14.631Z,28.90
2022-09-07T13:18:43.704Z,28.90
2022-09-07T13:21:48.599Z,28.90
2022-09-07T13:27:06.031Z,28.90
2022-09-07T13:29:58.901Z,28.90
2022-09-07T13:35:22.941Z,28.90
2022-09-07T13:38:02.962Z,28.90
2022-09-07T13:44:53.078Z,28.90
2022-09-07T13:47:42.887Z,28.90
2022-09-07T13:50:33.136Z,28.90
2022-09-07T13:53:21.545Z,28.90
2022-09-07T13:56:12.837Z,28.90
2022-09-07T13:58:42.154Z,28.90
2022-09-07T14:01:43.155Z,28.90
2022-09-07T14:04:31.310Z,28.90
2022-09-07T14:07:06.881Z,28.90
2022-09-07T14:09:34.919Z,28.90
2022-09-07T14:12:02.445Z,28.90
2022-09-07T14:14:32.980Z,28.90
2022-09-07T14:20:50.146Z,28.90
2022-09-07T14:23:36.691Z,29.00
2022-09-07T14:26:19.162Z,28.90
2022-09-07T14:28:49.697Z,29.00
2022-09-07T14:31:19.715Z,29.00
2022-09-07T14:33:52.147Z,29.00
2022-09-07T14:37:13.850Z,29.00
2022-09-07T14:39:49.819Z,29.00
2022-09-07T14:42:22.158Z,29.00
2022-09-07T14:45:16.995Z,29.00
2022-09-07T14:47:47.661Z,29.00
2022-09-07T14:50:30.782Z,29.00
2022-09-07T14:56:01.920Z,29.00
2022-09-07T14:58:32.520Z,29.00
2022-09-07T15:04:02.628Z,29.00
2022-09-07T15:09:28.938Z,29.10
2022-09-07T15:12:38.179Z,29.10
2022-09-07T15:15:37.457Z,29.10
2022-09-07T15:18:26.558Z,29.10
2022-09-07T15:20:53.870Z,29.10
2022-09-07T15:23:21.151Z,29.10
2022-09-07T15:25:53.810Z,29.00
2022-09-07T15:34:12.780Z,29.00
2022-09-07T15:36:43.550Z,29.00
2022-09-07T15:39:22.583Z,29.00
2022-09-07T15:41:51.422Z,29.10
2022-09-07T15:44:24.880Z,29.00
2022-09-07T15:49:50.100Z,29.00
2022-09-07T15:52:18.553Z,29.00
2022-09-07T15:54:45.867Z,29.00
2022-09-07T16:00:02.307Z,29.10
2022-09-07T16:05:30.757Z,29.10
2022-09-07T16:10:55.691Z,29.20
2022-09-07T16:13:31.761Z,29.20
2022-09-07T16:15:59.781Z,29.10
2022-09-07T16:18:31.140Z,29.10
2022-09-07T16:21:05.528Z,29.10
2022-09-07T16:23:32.839Z,29.10
2022-09-07T16:26:02.833Z,29.10
2022-09-07T16:28:31.546Z,29.10
2022-09-07T16:30:59.142Z,29.10
2022-09-07T16:33:36.672Z,29.20
2022-09-07T16:36:09.148Z,29.20
2022-09-07T16:38:44.777Z,29.20
2022-09-07T16:41:20.765Z,29.20
2022-09-07T16:43:49.454Z,29.20
2022-09-07T16:46:19.394Z,29.10
2022-09-07T16:48:47.625Z,29.10
2022-09-07T16:51:23.931Z,29.10
2022-09-07T16:53:58.655Z,29.20
2022-09-07T16:56:30.516Z,29.20
2022-09-07T16:59:03.687Z,29.20
2022-09-07T17:01:38.574Z,29.10
2022-09-07T17:04:11.048Z,29.10
2022-09-07T17:06:47.273Z,29.10
2022-09-07T17:09:36.498Z,29.10
2022-09-07T17:28:22.522Z,29.00
2022-09-07T17:30:49.759Z,29.00
2022-09-07T17:33:17.118Z,28.90
2022-09-07T17:35:44.484Z,28.90
2022-09-07T17:41:10.671Z,28.80
2022-09-07T17:43:39.621Z,28.80
2022-09-07T17:46:33.406Z,28.80
2022-09-07T17:49:02.318Z,28.80
2022-09-07T17:51:32.021Z,28.80
2022-09-07T17:54:09.526Z,28.90
2022-09-07T17:56:37.886Z,28.80
2022-09-07T18:01:53.994Z,28.80
2022-09-07T18:04:22.746Z,28.80
2022-09-07T18:06:50.608Z,28.70
2022-09-07T18:09:19.652Z,28.70
2022-09-07T18:11:48.931Z,28.70
2022-09-07T18:14:17.554Z,28.60
2022-09-07T18:16:46.104Z,28.60
2022-09-07T18:19:13.897Z,28.60
2022-09-07T18:21:42.931Z,28.60
2022-09-07T18:24:17.109Z,28.70
2022-09-07T18:26:50.223Z,28.70
2022-09-07T18:29:31.351Z,28.60
2022-09-07T18:32:02.478Z,28.70
2022-09-07T18:34:31.797Z,28.80
2022-09-07T18:37:00.367Z,28.80
2022-09-07T18:39:28.456Z,28.90
2022-09-07T18:41:55.736Z,28.80
2022-09-07T18:47:21.789Z,28.80
2022-09-07T18:49:51.479Z,28.80
2022-09-07T18:55:08.565Z,28.70
2022-09-07T18:57:36.543Z,28.70
2022-09-07T19:00:06.212Z,28.70
2022-09-07T19:02:33.722Z,28.70
2022-09-07T19:07:49.196Z,28.60
2022-09-07T19:10:17.837Z,28.50
2022-09-07T19:12:46.342Z,28.40
2022-09-07T19:15:14.740Z,28.40
2022-09-07T19:17:42.211Z,28.50
2022-09-07T19:20:10.300Z,28.50
2022-09-07T19:22:37.745Z,28.50
2022-09-07T19:25:06.145Z,28.50
2022-09-07T19:27:33.617Z,28.50
2022-09-07T19:30:01.414Z,28.40
2022-09-07T19:32:29.107Z,28.40
2022-09-07T19:34:56.569Z,28.40
2022-09-07T19:37:25.552Z,28.40
2022-09-07T19:39:56.000Z,28.40
2022-09-07T19:42:24.574Z,28.40
2022-09-07T19:44:53.007Z,28.40
2022-09-07T19:47:21.387Z,28.40
2022-09-07T19:49:48.655Z,28.40
2022-09-07T19:52:16.677Z,28.40
2022-09-07T19:54:44.223Z,28.40
2022-09-07T19:57:11.477Z,28.40
2022-09-07T19:59:38.918Z,28.40
2022-09-07T20:02:07.330Z,28.40
2022-09-07T20:04:35.767Z,28.40
2022-09-07T20:07:03.918Z,28.40
2022-09-07T20:09:31.204Z,28.40
2022-09-07T20:11:58.683Z,28.40
2022-09-07T20:14:26.060Z,28.40
2022-09-07T20:16:53.390Z,28.40
2022-09-07T20:19:20.994Z,28.40
2022-09-07T20:21:49.367Z,28.40
2022-09-07T20:24:22.328Z,28.40
2022-09-07T20:26:50.023Z,28.40
2022-09-07T20:29:27.323Z,28.40
2022-09-07T20:31:59.882Z,28.40
2022-09-07T20:34:28.406Z,28.40
2022-09-07T20:36:56.588Z,28.40
2022-09-07T20:39:24.158Z,28.40
2022-09-07T20:41:51.786Z,28.40
2022-09-07T20:44:19.366Z,28.40
2022-09-07T20:46:46.706Z,28.20
2022-09-07T20:49:14.037Z,28.20
2022-09-07T20:51:41.478Z,28.30
2022-09-07T20:54:08.812Z,28.30
2022-09-07T20:56:36.267Z,28.30
2022-09-07T20:59:04.016Z,28.30
2022-09-07T21:01:32.611Z,28.30
2022-09-07T21:04:00.998Z,28.20
2022-09-07T21:06:30.784Z,28.30
2022-09-07T21:08:58.299Z,28.30
2022-09-07T21:11:31.338Z,28.30
2022-09-07T21:14:08.204Z,28.20
2022-09-07T21:16:36.233Z,28.20
2022-09-07T21:19:07.889Z,28.20
2022-09-07T21:21:39.145Z,28.20
2022-09-07T21:24:14.455Z,28.20
2022-09-07T21:26:42.098Z,28.20
2022-09-07T21:29:16.913Z,28.20
2022-09-07T21:31:44.933Z,28.20
2022-09-07T21:34:12.361Z,28.20
2022-09-07T21:36:39.939Z,28.20
2022-09-07T21:39:11.411Z,28.20
2022-09-07T21:41:43.223Z,28.20
2022-09-07T21:44:13.441Z,28.20
2022-09-07T21:46:41.795Z,28.20
2022-09-07T21:49:09.250Z,28.20
2022-09-07T21:51:37.877Z,28.20
2022-09-07T21:54:05.420Z,28.10
2022-09-07T21:56:32.815Z,28.10
2022-09-07T21:59:01.468Z,28.10
2022-09-07T22:01:30.650Z,28.10
2022-09-07T22:04:00.889Z,28.10
2022-09-07T22:06:29.214Z,28.10
2022-09-07T22:08:56.600Z,28.10
2022-09-07T22:11:26.241Z,28.10
2022-09-07T22:13:55.750Z,28.10
2022-09-07T22:16:23.379Z,28.10
2022-09-07T22:18:50.930Z,28.10
2022-09-07T22:21:24.030Z,28.00
2022-09-07T22:23:54.750Z,28.10
2022-09-07T22:26:24.526Z,28.10
2022-09-07T22:28:51.913Z,28.10
2022-09-07T22:31:30.848Z,28.10
2022-09-07T22:33:59.651Z,28.10
2022-09-07T22:36:32.975Z,28.10
2022-09-07T22:39:03.701Z,28.10
2022-09-07T22:41:33.308Z,28.10
2022-09-07T22:44:00.950Z,28.00
2022-09-07T22:46:30.367Z,28.00
2022-09-07T22:48:58.583Z,28.00
2022-09-07T22:51:26.939Z,28.00
2022-09-07T22:53:55.191Z,28.00
2022-09-07T22:56:28.257Z,28.00
2022-09-07T22:58:58.037Z,27.90
2022-09-07T23:01:27.493Z,27.90
2022-09-07T23:03:56.257Z,27.90
2022-09-07T23:06:36.673Z,27.80
2022-09-07T23:09:13.606Z,27.80
2022-09-07T23:11:40.943Z,27.70
2022-09-07T23:14:13.248Z,27.70
2022-09-07T23:16:40.953Z,27.70
2022-09-07T23:19:11.186Z,27.80
2022-09-07T23:21:42.374Z,27.80
2022-09-07T23:24:14.947Z,27.70
2022-09-07T23:26:42.805Z,27.70
2022-09-07T23:29:12.558Z,27.80
2022-09-07T23:31:40.617Z,27.70
2022-09-07T23:34:08.469Z,27.60
2022-09-07T23:36:37.051Z,27.60
2022-09-07T23:39:04.886Z,27.60
2022-09-07T23:41:32.757Z,27.60
2022-09-07T23:44:00.500Z,27.60
2022-09-07T23:46:27.886Z,27.50
2022-09-07T23:48:55.300Z,27.60
2022-09-07T23:51:24.454Z,27.60
2022-09-07T23:53:52.724Z,27.50
2022-09-07T23:56:21.803Z,27.50
2022-09-07T23:58:49.065Z,27.50
